LiveATC.Net - Listen to live air traffic control over the Internet! Contact LiveATC.net for advertising information


ICAO: YSCN  IATA: CDU   Airport: Camden General Airport
City: Camden   State/Province: New South Wales
Country: Australia   Continent: Oceania
YSSY METAR Weather: YSSY 020330Z 04004KT CAVOK 24/M01 Q1017 NOSIG
YSCN Flight Activity (FlightAware)
YSCN Tower/CTAF
Feed Status: DOWN
Last heard on: 2014-09-29 06:42:03 (2 days 21 hours 41 minutes ago)
YSCN Tower/CTAF Audio Archives
FacilityFrequency
Camden Tower/CTAF120.100


NOTICE

Unauthorized use prohibited. See LiveATC.net Terms of Service


Find LiveATC Audio Streams


Airport/ARTCC Code

Frequency
(e.g., 124.400, 128.75)
Site-wide search

Browse LiveATC Feeds
LiveATC Coverage Map
Top 50 LiveATC Feeds
Bad Weather Areas

LiveATC FAQ
Offer a LiveATC Feed
Contact LiveATC.net
Press Inquiries

LiveATC on iPhone
LiveATC on Android

LiveATC Mobile
(Mobile browser)

ATC Audio Archives
Interesting Recordings

LiveATC Forums


Home Page
About LiveATC.net
Make a Donation
LiveATC Bookstore

Terms of Use
Privacy Policy

ATC/Radar Sites
U.S. ARTCC Freqs
Canadian Air Freqs

AIRMETs/SIGMETs

FAA Airport Status
Nat'l Airspace Status
Arrival Demand Charts


Server Software By:
Icecast.org
Liquidsoap

Please make a donation to help us keep growing!